sensor_id;sensor_type;location;lat;lon;timestamp;P1;durP1;ratioP1;P2;durP2;ratioP2
50789;SDS011;37287;47.554;7.844;2022-12-07T00:03:55;10.00;;;6.45;;
50789;SDS011;37287;47.554;7.844;2022-12-07T00:06:27;8.77;;;6.88;;
50789;SDS011;37287;47.554;7.844;2022-12-07T00:08:53;10.35;;;6.97;;
50789;SDS011;37287;47.554;7.844;2022-12-07T00:11:21;11.10;;;8.15;;
50789;SDS011;37287;47.554;7.844;2022-12-07T00:13:53;10.73;;;7.53;;
50789;SDS011;37287;47.554;7.844;2022-12-07T00:16:22;13.23;;;9.23;;
50789;SDS011;37287;47.554;7.844;2022-12-07T00:18:54;13.13;;;9.38;;
50789;SDS011;37287;47.554;7.844;2022-12-07T00:21:22;11.10;;;8.32;;
50789;SDS011;37287;47.554;7.844;2022-12-07T00:23:54;10.93;;;8.02;;
50789;SDS011;37287;47.554;7.844;2022-12-07T00:28:55;12.63;;;8.40;;
50789;SDS011;37287;47.554;7.844;2022-12-07T00:31:26;11.45;;;8.25;;
50789;SDS011;37287;47.554;7.844;2022-12-07T00:33:56;13.50;;;7.82;;
50789;SDS011;37287;47.554;7.844;2022-12-07T00:36:24;13.15;;;9.00;;
50789;SDS011;37287;47.554;7.844;2022-12-07T00:38:53;11.07;;;7.97;;
50789;SDS011;37287;47.554;7.844;2022-12-07T00:41:22;11.55;;;8.80;;
50789;SDS011;37287;47.554;7.844;2022-12-07T00:43:50;11.85;;;8.02;;
50789;SDS011;37287;47.554;7.844;2022-12-07T00:46:20;11.80;;;8.73;;
50789;SDS011;37287;47.554;7.844;2022-12-07T00:48:49;11.65;;;8.30;;
50789;SDS011;37287;47.554;7.844;2022-12-07T00:51:17;10.10;;;7.70;;
50789;SDS011;37287;47.554;7.844;2022-12-07T00:53:47;9.50;;;7.28;;
50789;SDS011;37287;47.554;7.844;2022-12-07T00:56:15;9.88;;;6.78;;
50789;SDS011;37287;47.554;7.844;2022-12-07T00:58:50;9.27;;;6.53;;
50789;SDS011;37287;47.554;7.844;2022-12-07T01:03:49;9.35;;;6.78;;
50789;SDS011;37287;47.554;7.844;2022-12-07T01:06:16;12.55;;;8.48;;
50789;SDS011;37287;47.554;7.844;2022-12-07T01:08:45;12.02;;;8.05;;
50789;SDS011;37287;47.554;7.844;2022-12-07T01:11:14;10.02;;;8.00;;
50789;SDS011;37287;47.554;7.844;2022-12-07T01:13:43;11.90;;;8.55;;
50789;SDS011;37287;47.554;7.844;2022-12-07T01:16:11;10.10;;;7.35;;
50789;SDS011;37287;47.554;7.844;2022-12-07T01:18:45;10.15;;;7.93;;
50789;SDS011;37287;47.554;7.844;2022-12-07T01:21:16;13.15;;;8.57;;
50789;SDS011;37287;47.554;7.844;2022-12-07T01:23:47;9.20;;;7.07;;
50789;SDS011;37287;47.554;7.844;2022-12-07T01:26:15;10.35;;;7.95;;
50789;SDS011;37287;47.554;7.844;2022-12-07T01:28:48;9.90;;;7.50;;
50789;SDS011;37287;47.554;7.844;2022-12-07T01:31:19;13.60;;;8.98;;
50789;SDS011;37287;47.554;7.844;2022-12-07T01:33:50;13.63;;;9.07;;
50789;SDS011;37287;47.554;7.844;2022-12-07T01:36:30;10.25;;;7.95;;
50789;SDS011;37287;47.554;7.844;2022-12-07T01:38:59;10.75;;;7.35;;
50789;SDS011;37287;47.554;7.844;2022-12-07T01:41:29;12.75;;;8.45;;
50789;SDS011;37287;47.554;7.844;2022-12-07T01:46:48;14.73;;;9.15;;
50789;SDS011;37287;47.554;7.844;2022-12-07T01:49:58;12.23;;;8.43;;
50789;SDS011;37287;47.554;7.844;2022-12-07T01:52:13;13.10;;;9.10;;
50789;SDS011;37287;47.554;7.844;2022-12-07T01:54:44;10.70;;;8.10;;
50789;SDS011;37287;47.554;7.844;2022-12-07T01:57:21;12.90;;;10.05;;
50789;SDS011;37287;47.554;7.844;2022-12-07T01:59:53;13.90;;;9.18;;
50789;SDS011;37287;47.554;7.844;2022-12-07T02:03:05;14.77;;;10.73;;
50789;SDS011;37287;47.554;7.844;2022-12-07T02:05:19;16.20;;;10.90;;
50789;SDS011;37287;47.554;7.844;2022-12-07T02:07:46;11.75;;;9.45;;
50789;SDS011;37287;47.554;7.844;2022-12-07T02:10:21;11.55;;;8.63;;
50789;SDS011;37287;47.554;7.844;2022-12-07T02:12:58;12.77;;;9.70;;
50789;SDS011;37287;47.554;7.844;2022-12-07T02:15:45;15.23;;;10.63;;
50789;SDS011;37287;47.554;7.844;2022-12-07T02:21:19;16.17;;;10.55;;
50789;SDS011;37287;47.554;7.844;2022-12-07T02:31:51;10.75;;;8.68;;
50789;SDS011;37287;47.554;7.844;2022-12-07T02:34:32;12.20;;;8.38;;
50789;SDS011;37287;47.554;7.844;2022-12-07T02:37:14;12.70;;;9.75;;
50789;SDS011;37287;47.554;7.844;2022-12-07T02:39:49;11.88;;;9.05;;
50789;SDS011;37287;47.554;7.844;2022-12-07T02:42:23;12.13;;;9.30;;
50789;SDS011;37287;47.554;7.844;2022-12-07T02:44:56;10.43;;;8.23;;
50789;SDS011;37287;47.554;7.844;2022-12-07T02:47:23;11.15;;;8.20;;
50789;SDS011;37287;47.554;7.844;2022-12-07T02:49:53;16.95;;;9.95;;
50789;SDS011;37287;47.554;7.844;2022-12-07T02:52:22;12.27;;;9.27;;
50789;SDS011;37287;47.554;7.844;2022-12-07T02:54:51;11.32;;;8.50;;
50789;SDS011;37287;47.554;7.844;2022-12-07T03:00:07;11.20;;;9.15;;
50789;SDS011;37287;47.554;7.844;2022-12-07T03:08:01;12.00;;;9.07;;
50789;SDS011;37287;47.554;7.844;2022-12-07T03:10:58;11.68;;;8.65;;
50789;SDS011;37287;47.554;7.844;2022-12-07T03:16:12;12.75;;;9.02;;
50789;SDS011;37287;47.554;7.844;2022-12-07T03:18:49;10.27;;;7.90;;
50789;SDS011;37287;47.554;7.844;2022-12-07T03:21:23;13.18;;;9.73;;
50789;SDS011;37287;47.554;7.844;2022-12-07T03:23:56;11.15;;;8.15;;
50789;SDS011;37287;47.554;7.844;2022-12-07T03:26:30;11.20;;;9.27;;
50789;SDS011;37287;47.554;7.844;2022-12-07T03:29:05;11.32;;;8.65;;
50789;SDS011;37287;47.554;7.844;2022-12-07T03:32:12;12.55;;;8.95;;
50789;SDS011;37287;47.554;7.844;2022-12-07T03:35:17;13.00;;;9.40;;
50789;SDS011;37287;47.554;7.844;2022-12-07T03:37:55;11.40;;;8.85;;
50789;SDS011;37287;47.554;7.844;2022-12-07T03:40:28;10.30;;;6.85;;
50789;SDS011;37287;47.554;7.844;2022-12-07T03:43:02;11.32;;;9.43;;
50789;SDS011;37287;47.554;7.844;2022-12-07T03:45:37;13.52;;;9.60;;
50789;SDS011;37287;47.554;7.844;2022-12-07T03:48:22;14.93;;;9.68;;
50789;SDS011;37287;47.554;7.844;2022-12-07T03:53:52;14.85;;;9.50;;
50789;SDS011;37287;47.554;7.844;2022-12-07T03:56:38;16.70;;;10.23;;
50789;SDS011;37287;47.554;7.844;2022-12-07T03:59:08;14.40;;;10.70;;
50789;SDS011;37287;47.554;7.844;2022-12-07T04:01:36;14.68;;;10.52;;
50789;SDS011;37287;47.554;7.844;2022-12-07T04:04:03;15.52;;;11.52;;
50789;SDS011;37287;47.554;7.844;2022-12-07T04:06:31;16.73;;;10.30;;
50789;SDS011;37287;47.554;7.844;2022-12-07T04:08:58;16.27;;;11.82;;
50789;SDS011;37287;47.554;7.844;2022-12-07T04:11:24;14.93;;;11.20;;
50789;SDS011;37287;47.554;7.844;2022-12-07T04:13:51;15.55;;;11.20;;
50789;SDS011;37287;47.554;7.844;2022-12-07T04:16:36;12.48;;;9.63;;
50789;SDS011;37287;47.554;7.844;2022-12-07T04:19:09;14.10;;;10.50;;
50789;SDS011;37287;47.554;7.844;2022-12-07T04:21:36;15.95;;;10.60;;
50789;SDS011;37287;47.554;7.844;2022-12-07T04:24:12;14.95;;;10.23;;
50789;SDS011;37287;47.554;7.844;2022-12-07T04:26:40;17.45;;;11.35;;
50789;SDS011;37287;47.554;7.844;2022-12-07T04:29:08;14.43;;;9.65;;
50789;SDS011;37287;47.554;7.844;2022-12-07T04:31:41;16.95;;;11.63;;
50789;SDS011;37287;47.554;7.844;2022-12-07T04:34:09;17.75;;;11.23;;
50789;SDS011;37287;47.554;7.844;2022-12-07T04:36:36;15.93;;;11.85;;
50789;SDS011;37287;47.554;7.844;2022-12-07T04:39:06;13.52;;;10.30;;
50789;SDS011;37287;47.554;7.844;2022-12-07T04:41:36;17.50;;;12.15;;
50789;SDS011;37287;47.554;7.844;2022-12-07T04:44:03;14.38;;;10.68;;
50789;SDS011;37287;47.554;7.844;2022-12-07T04:46:33;14.13;;;9.52;;
50789;SDS011;37287;47.554;7.844;2022-12-07T04:49:04;16.90;;;11.32;;
50789;SDS011;37287;47.554;7.844;2022-12-07T04:51:30;17.65;;;11.07;;
50789;SDS011;37287;47.554;7.844;2022-12-07T04:53:57;17.80;;;12.30;;
50789;SDS011;37287;47.554;7.844;2022-12-07T04:56:24;16.40;;;11.10;;
50789;SDS011;37287;47.554;7.844;2022-12-07T04:58:51;16.50;;;12.45;;
50789;SDS011;37287;47.554;7.844;2022-12-07T05:01:20;18.92;;;12.45;;
50789;SDS011;37287;47.554;7.844;2022-12-07T05:03:49;16.38;;;10.73;;
50789;SDS011;37287;47.554;7.844;2022-12-07T05:06:16;15.75;;;11.20;;
50789;SDS011;37287;47.554;7.844;2022-12-07T05:08:45;13.27;;;9.68;;
50789;SDS011;37287;47.554;7.844;2022-12-07T05:11:12;13.65;;;9.60;;
50789;SDS011;37287;47.554;7.844;2022-12-07T05:13:59;14.05;;;10.20;;
50789;SDS011;37287;47.554;7.844;2022-12-07T05:16:26;13.43;;;9.80;;
50789;SDS011;37287;47.554;7.844;2022-12-07T05:18:54;13.38;;;9.43;;
50789;SDS011;37287;47.554;7.844;2022-12-07T05:21:22;15.48;;;10.75;;
50789;SDS011;37287;47.554;7.844;2022-12-07T05:23:49;14.52;;;9.32;;
50789;SDS011;37287;47.554;7.844;2022-12-07T05:26:16;15.05;;;9.95;;
50789;SDS011;37287;47.554;7.844;2022-12-07T05:28:43;12.82;;;9.13;;
50789;SDS011;37287;47.554;7.844;2022-12-07T05:31:10;16.48;;;9.98;;
50789;SDS011;37287;47.554;7.844;2022-12-07T05:33:36;16.67;;;11.00;;
50789;SDS011;37287;47.554;7.844;2022-12-07T05:36:05;17.90;;;12.25;;
50789;SDS011;37287;47.554;7.844;2022-12-07T05:38:33;17.10;;;11.27;;
50789;SDS011;37287;47.554;7.844;2022-12-07T05:41:00;18.75;;;12.32;;
50789;SDS011;37287;47.554;7.844;2022-12-07T05:43:33;14.20;;;10.68;;
50789;SDS011;37287;47.554;7.844;2022-12-07T05:46:02;17.00;;;12.10;;
50789;SDS011;37287;47.554;7.844;2022-12-07T05:48:28;18.50;;;10.65;;
50789;SDS011;37287;47.554;7.844;2022-12-07T05:50:57;12.88;;;9.23;;
50789;SDS011;37287;47.554;7.844;2022-12-07T05:53:26;16.92;;;10.63;;
50789;SDS011;37287;47.554;7.844;2022-12-07T05:55:52;15.30;;;10.52;;
50789;SDS011;37287;47.554;7.844;2022-12-07T05:58:19;11.77;;;8.55;;
50789;SDS011;37287;47.554;7.844;2022-12-07T06:01:04;14.07;;;10.43;;
50789;SDS011;37287;47.554;7.844;2022-12-07T06:03:31;14.90;;;9.73;;
50789;SDS011;37287;47.554;7.844;2022-12-07T06:05:58;13.23;;;9.00;;
50789;SDS011;37287;47.554;7.844;2022-12-07T06:08:24;14.70;;;10.27;;
50789;SDS011;37287;47.554;7.844;2022-12-07T06:10:51;16.80;;;11.52;;
50789;SDS011;37287;47.554;7.844;2022-12-07T06:13:38;17.48;;;11.98;;
50789;SDS011;37287;47.554;7.844;2022-12-07T06:16:12;18.92;;;11.40;;
50789;SDS011;37287;47.554;7.844;2022-12-07T06:18:38;14.80;;;10.60;;
50789;SDS011;37287;47.554;7.844;2022-12-07T06:21:05;14.75;;;9.73;;
50789;SDS011;37287;47.554;7.844;2022-12-07T06:23:38;15.20;;;10.60;;
50789;SDS011;37287;47.554;7.844;2022-12-07T06:26:04;16.60;;;10.73;;
50789;SDS011;37287;47.554;7.844;2022-12-07T06:28:31;12.65;;;9.05;;
50789;SDS011;37287;47.554;7.844;2022-12-07T06:30:58;13.25;;;9.25;;
50789;SDS011;37287;47.554;7.844;2022-12-07T06:33:31;14.60;;;8.77;;
50789;SDS011;37287;47.554;7.844;2022-12-07T06:36:06;14.60;;;9.68;;
50789;SDS011;37287;47.554;7.844;2022-12-07T06:38:33;11.05;;;8.45;;
50789;SDS011;37287;47.554;7.844;2022-12-07T06:41:02;10.25;;;7.70;;
50789;SDS011;37287;47.554;7.844;2022-12-07T06:43:30;10.70;;;7.90;;
50789;SDS011;37287;47.554;7.844;2022-12-07T06:45:57;12.07;;;8.27;;
50789;SDS011;37287;47.554;7.844;2022-12-07T06:48:26;13.20;;;8.68;;
50789;SDS011;37287;47.554;7.844;2022-12-07T06:50:52;11.55;;;7.40;;
50789;SDS011;37287;47.554;7.844;2022-12-07T06:53:20;11.48;;;7.72;;
50789;SDS011;37287;47.554;7.844;2022-12-07T06:55:48;10.23;;;6.95;;
50789;SDS011;37287;47.554;7.844;2022-12-07T06:58:15;9.05;;;6.53;;
50789;SDS011;37287;47.554;7.844;2022-12-07T07:00:42;10.23;;;7.18;;
50789;SDS011;37287;47.554;7.844;2022-12-07T07:03:09;7.82;;;6.50;;
50789;SDS011;37287;47.554;7.844;2022-12-07T07:05:36;7.65;;;6.13;;
50789;SDS011;37287;47.554;7.844;2022-12-07T07:08:02;10.13;;;6.93;;
50789;SDS011;37287;47.554;7.844;2022-12-07T07:10:49;8.73;;;6.22;;
50789;SDS011;37287;47.554;7.844;2022-12-07T07:13:24;11.15;;;7.88;;
50789;SDS011;37287;47.554;7.844;2022-12-07T07:15:51;11.75;;;7.80;;
50789;SDS011;37287;47.554;7.844;2022-12-07T07:18:17;13.80;;;9.15;;
50789;SDS011;37287;47.554;7.844;2022-12-07T07:20:45;10.30;;;7.50;;
50789;SDS011;37287;47.554;7.844;2022-12-07T07:23:12;11.43;;;7.68;;
50789;SDS011;37287;47.554;7.844;2022-12-07T07:25:41;12.60;;;8.88;;
50789;SDS011;37287;47.554;7.844;2022-12-07T07:28:09;12.75;;;8.27;;
50789;SDS011;37287;47.554;7.844;2022-12-07T07:30:36;10.60;;;7.38;;
50789;SDS011;37287;47.554;7.844;2022-12-07T07:33:03;9.75;;;6.72;;
50789;SDS011;37287;47.554;7.844;2022-12-07T07:35:31;11.50;;;8.23;;
50789;SDS011;37287;47.554;7.844;2022-12-07T07:37:59;10.13;;;7.18;;
50789;SDS011;37287;47.554;7.844;2022-12-07T07:40:26;10.88;;;7.05;;
50789;SDS011;37287;47.554;7.844;2022-12-07T07:42:55;11.77;;;8.20;;
50789;SDS011;37287;47.554;7.844;2022-12-07T07:45:23;10.73;;;7.00;;
50789;SDS011;37287;47.554;7.844;2022-12-07T07:47:51;13.85;;;9.05;;
50789;SDS011;37287;47.554;7.844;2022-12-07T07:50:26;9.82;;;7.00;;
50789;SDS011;37287;47.554;7.844;2022-12-07T07:52:53;10.27;;;8.10;;
50789;SDS011;37287;47.554;7.844;2022-12-07T07:55:19;14.50;;;9.77;;
50789;SDS011;37287;47.554;7.844;2022-12-07T07:57:46;12.57;;;8.85;;
50789;SDS011;37287;47.554;7.844;2022-12-07T08:00:19;13.55;;;9.07;;
50789;SDS011;37287;47.554;7.844;2022-12-07T08:02:59;10.85;;;7.68;;
50789;SDS011;37287;47.554;7.844;2022-12-07T08:05:25;12.05;;;8.10;;
50789;SDS011;37287;47.554;7.844;2022-12-07T08:07:52;10.93;;;7.30;;
50789;SDS011;37287;47.554;7.844;2022-12-07T08:10:20;10.50;;;7.55;;
50789;SDS011;37287;47.554;7.844;2022-12-07T08:12:47;9.80;;;6.65;;
50789;SDS011;37287;47.554;7.844;2022-12-07T08:15:35;12.10;;;7.55;;
50789;SDS011;37287;47.554;7.844;2022-12-07T08:18:03;9.32;;;6.95;;
50789;SDS011;37287;47.554;7.844;2022-12-07T08:20:30;10.15;;;7.38;;
50789;SDS011;37287;47.554;7.844;2022-12-07T08:23:00;9.98;;;6.78;;
50789;SDS011;37287;47.554;7.844;2022-12-07T08:25:27;10.05;;;7.38;;
50789;SDS011;37287;47.554;7.844;2022-12-07T08:27:54;11.93;;;7.10;;
50789;SDS011;37287;47.554;7.844;2022-12-07T08:30:22;12.73;;;7.75;;
50789;SDS011;37287;47.554;7.844;2022-12-07T08:32:51;11.38;;;7.80;;
50789;SDS011;37287;47.554;7.844;2022-12-07T08:35:17;11.25;;;7.65;;
50789;SDS011;37287;47.554;7.844;2022-12-07T08:37:45;12.15;;;8.60;;
50789;SDS011;37287;47.554;7.844;2022-12-07T08:40:12;13.18;;;9.73;;
50789;SDS011;37287;47.554;7.844;2022-12-07T08:42:42;10.57;;;7.47;;
50789;SDS011;37287;47.554;7.844;2022-12-07T08:45:13;12.57;;;9.23;;
50789;SDS011;37287;47.554;7.844;2022-12-07T08:47:41;11.82;;;9.10;;
50789;SDS011;37287;47.554;7.844;2022-12-07T08:50:12;12.63;;;8.55;;
50789;SDS011;37287;47.554;7.844;2022-12-07T08:52:40;14.05;;;8.48;;
50789;SDS011;37287;47.554;7.844;2022-12-07T08:55:09;11.82;;;10.10;;
50789;SDS011;37287;47.554;7.844;2022-12-07T08:57:37;13.02;;;9.40;;
50789;SDS011;37287;47.554;7.844;2022-12-07T09:00:07;12.57;;;8.73;;
50789;SDS011;37287;47.554;7.844;2022-12-07T09:02:34;11.00;;;8.20;;
50789;SDS011;37287;47.554;7.844;2022-12-07T09:05:03;13.45;;;9.85;;
50789;SDS011;37287;47.554;7.844;2022-12-07T09:07:30;12.00;;;9.40;;
50789;SDS011;37287;47.554;7.844;2022-12-07T09:10:00;13.48;;;9.98;;
50789;SDS011;37287;47.554;7.844;2022-12-07T09:12:27;16.13;;;10.38;;
50789;SDS011;37287;47.554;7.844;2022-12-07T09:14:56;17.65;;;11.73;;
50789;SDS011;37287;47.554;7.844;2022-12-07T09:17:23;12.75;;;9.55;;
50789;SDS011;37287;47.554;7.844;2022-12-07T09:19:49;13.25;;;9.88;;
50789;SDS011;37287;47.554;7.844;2022-12-07T09:22:16;14.95;;;9.60;;
50789;SDS011;37287;47.554;7.844;2022-12-07T09:24:45;15.50;;;10.15;;
50789;SDS011;37287;47.554;7.844;2022-12-07T09:27:12;13.55;;;10.07;;
50789;SDS011;37287;47.554;7.844;2022-12-07T09:29:43;14.00;;;10.77;;
50789;SDS011;37287;47.554;7.844;2022-12-07T09:32:10;12.63;;;8.85;;
50789;SDS011;37287;47.554;7.844;2022-12-07T09:34:37;12.63;;;8.93;;
50789;SDS011;37287;47.554;7.844;2022-12-07T09:37:04;16.63;;;11.90;;
50789;SDS011;37287;47.554;7.844;2022-12-07T09:39:30;11.98;;;8.77;;
50789;SDS011;37287;47.554;7.844;2022-12-07T09:41:57;13.25;;;9.30;;
50789;SDS011;37287;47.554;7.844;2022-12-07T09:44:35;10.65;;;7.78;;
50789;SDS011;37287;47.554;7.844;2022-12-07T09:47:02;10.70;;;8.10;;
50789;SDS011;37287;47.554;7.844;2022-12-07T09:49:29;11.57;;;8.65;;
50789;SDS011;37287;47.554;7.844;2022-12-07T09:52:04;13.68;;;9.85;;
50789;SDS011;37287;47.554;7.844;2022-12-07T09:54:46;12.95;;;9.90;;
50789;SDS011;37287;47.554;7.844;2022-12-07T09:57:15;13.65;;;9.48;;
50789;SDS011;37287;47.554;7.844;2022-12-07T09:59:42;15.48;;;10.43;;
50789;SDS011;37287;47.554;7.844;2022-12-07T10:05:03;12.52;;;9.38;;
50789;SDS011;37287;47.554;7.844;2022-12-07T10:07:36;11.88;;;9.05;;
50789;SDS011;37287;47.554;7.844;2022-12-07T10:10:06;11.40;;;8.40;;
50789;SDS011;37287;47.554;7.844;2022-12-07T10:15:21;15.23;;;10.38;;
50789;SDS011;37287;47.554;7.844;2022-12-07T10:17:51;17.42;;;11.75;;
50789;SDS011;37287;47.554;7.844;2022-12-07T10:20:19;15.95;;;11.23;;
50789;SDS011;37287;47.554;7.844;2022-12-07T10:22:57;13.60;;;9.93;;
50789;SDS011;37287;47.554;7.844;2022-12-07T10:25:27;15.40;;;10.32;;
50789;SDS011;37287;47.554;7.844;2022-12-07T10:27:59;12.60;;;9.60;;
50789;SDS011;37287;47.554;7.844;2022-12-07T10:30:29;16.45;;;12.00;;
50789;SDS011;37287;47.554;7.844;2022-12-07T10:32:57;17.75;;;11.00;;
50789;SDS011;37287;47.554;7.844;2022-12-07T10:35:29;14.98;;;12.05;;
50789;SDS011;37287;47.554;7.844;2022-12-07T10:37:57;15.25;;;10.90;;
50789;SDS011;37287;47.554;7.844;2022-12-07T10:40:27;17.15;;;11.63;;
50789;SDS011;37287;47.554;7.844;2022-12-07T10:45:42;14.32;;;11.32;;
50789;SDS011;37287;47.554;7.844;2022-12-07T10:48:32;16.60;;;10.40;;
50789;SDS011;37287;47.554;7.844;2022-12-07T10:51:22;11.10;;;9.02;;
50789;SDS011;37287;47.554;7.844;2022-12-07T10:57:17;15.13;;;11.18;;
50789;SDS011;37287;47.554;7.844;2022-12-07T11:00:00;14.50;;;10.70;;
50789;SDS011;37287;47.554;7.844;2022-12-07T11:02:35;13.60;;;10.48;;
50789;SDS011;37287;47.554;7.844;2022-12-07T11:05:22;21.52;;;12.43;;
50789;SDS011;37287;47.554;7.844;2022-12-07T11:07:59;13.95;;;10.68;;
50789;SDS011;37287;47.554;7.844;2022-12-07T11:13:18;16.40;;;11.50;;
50789;SDS011;37287;47.554;7.844;2022-12-07T11:19:06;16.92;;;12.35;;
50789;SDS011;37287;47.554;7.844;2022-12-07T11:21:57;15.02;;;10.98;;
50789;SDS011;37287;47.554;7.844;2022-12-07T11:30:47;15.65;;;11.18;;
50789;SDS011;37287;47.554;7.844;2022-12-07T11:33:07;14.77;;;10.95;;
50789;SDS011;37287;47.554;7.844;2022-12-07T11:35:54;13.82;;;10.98;;
50789;SDS011;37287;47.554;7.844;2022-12-07T11:38:38;13.95;;;10.25;;
50789;SDS011;37287;47.554;7.844;2022-12-07T11:41:19;14.32;;;10.70;;
50789;SDS011;37287;47.554;7.844;2022-12-07T11:44:03;10.73;;;9.18;;
50789;SDS011;37287;47.554;7.844;2022-12-07T11:47:05;12.68;;;9.52;;
50789;SDS011;37287;47.554;7.844;2022-12-07T11:52:18;10.25;;;8.32;;
50789;SDS011;37287;47.554;7.844;2022-12-07T11:54:52;8.52;;;7.60;;
50789;SDS011;37287;47.554;7.844;2022-12-07T11:57:41;12.82;;;8.57;;
50789;SDS011;37287;47.554;7.844;2022-12-07T12:00:12;10.57;;;8.75;;
50789;SDS011;37287;47.554;7.844;2022-12-07T12:05:26;13.35;;;10.05;;
50789;SDS011;37287;47.554;7.844;2022-12-07T12:08:06;16.40;;;8.80;;
50789;SDS011;37287;47.554;7.844;2022-12-07T12:22:46;10.07;;;8.30;;
50789;SDS011;37287;47.554;7.844;2022-12-07T12:25:38;14.02;;;9.73;;
50789;SDS011;37287;47.554;7.844;2022-12-07T12:28:22;10.65;;;8.15;;
50789;SDS011;37287;47.554;7.844;2022-12-07T12:33:48;10.98;;;8.95;;
50789;SDS011;37287;47.554;7.844;2022-12-07T12:59:33;10.23;;;8.05;;
50789;SDS011;37287;47.554;7.844;2022-12-07T13:15:37;11.10;;;8.32;;
50789;SDS011;37287;47.554;7.844;2022-12-07T13:18:23;10.63;;;8.30;;
50789;SDS011;37287;47.554;7.844;2022-12-07T13:31:52;12.15;;;8.70;;
50789;SDS011;37287;47.554;7.844;2022-12-07T13:37:47;10.63;;;7.70;;
50789;SDS011;37287;47.554;7.844;2022-12-07T13:39:49;10.88;;;8.68;;
50789;SDS011;37287;47.554;7.844;2022-12-07T13:42:24;10.75;;;8.70;;
50789;SDS011;37287;47.554;7.844;2022-12-07T13:44:51;12.85;;;8.63;;
50789;SDS011;37287;47.554;7.844;2022-12-07T13:49:58;13.35;;;10.25;;
50789;SDS011;37287;47.554;7.844;2022-12-07T13:52:25;13.43;;;9.35;;
50789;SDS011;37287;47.554;7.844;2022-12-07T13:54:57;10.73;;;8.23;;
50789;SDS011;37287;47.554;7.844;2022-12-07T13:57:28;11.00;;;8.95;;
50789;SDS011;37287;47.554;7.844;2022-12-07T13:59:57;12.60;;;8.55;;
50789;SDS011;37287;47.554;7.844;2022-12-07T14:05:07;11.25;;;7.85;;
50789;SDS011;37287;47.554;7.844;2022-12-07T14:08:03;11.55;;;8.45;;
50789;SDS011;37287;47.554;7.844;2022-12-07T14:10:40;11.65;;;8.98;;
50789;SDS011;37287;47.554;7.844;2022-12-07T14:13:31;13.15;;;10.20;;
50789;SDS011;37287;47.554;7.844;2022-12-07T14:16:05;11.70;;;9.48;;
50789;SDS011;37287;47.554;7.844;2022-12-07T14:18:41;13.10;;;9.65;;
50789;SDS011;37287;47.554;7.844;2022-12-07T14:21:18;8.20;;;7.20;;
50789;SDS011;37287;47.554;7.844;2022-12-07T14:23:47;13.45;;;9.45;;
50789;SDS011;37287;47.554;7.844;2022-12-07T14:26:50;8.38;;;7.47;;
50789;SDS011;37287;47.554;7.844;2022-12-07T14:32:16;11.30;;;9.18;;
50789;SDS011;37287;47.554;7.844;2022-12-07T14:34:58;10.18;;;8.60;;
50789;SDS011;37287;47.554;7.844;2022-12-07T14:37:40;10.13;;;8.85;;
50789;SDS011;37287;47.554;7.844;2022-12-07T14:40:11;14.82;;;10.40;;
50789;SDS011;37287;47.554;7.844;2022-12-07T14:42:45;14.85;;;11.02;;
50789;SDS011;37287;47.554;7.844;2022-12-07T14:45:18;18.08;;;13.57;;
50789;SDS011;37287;47.554;7.844;2022-12-07T14:47:48;16.70;;;13.60;;
50789;SDS011;37287;47.554;7.844;2022-12-07T14:50:39;13.95;;;10.68;;
50789;SDS011;37287;47.554;7.844;2022-12-07T14:53:33;15.13;;;10.20;;
50789;SDS011;37287;47.554;7.844;2022-12-07T14:56:03;16.17;;;9.77;;
50789;SDS011;37287;47.554;7.844;2022-12-07T14:58:31;13.35;;;10.25;;
50789;SDS011;37287;47.554;7.844;2022-12-07T15:00:59;11.57;;;9.93;;
50789;SDS011;37287;47.554;7.844;2022-12-07T15:03:26;12.20;;;9.52;;
50789;SDS011;37287;47.554;7.844;2022-12-07T15:05:54;12.20;;;9.15;;
50789;SDS011;37287;47.554;7.844;2022-12-07T15:08:21;10.93;;;8.80;;
50789;SDS011;37287;47.554;7.844;2022-12-07T15:10:50;11.73;;;9.15;;
50789;SDS011;37287;47.554;7.844;2022-12-07T15:13:17;13.75;;;9.32;;
50789;SDS011;37287;47.554;7.844;2022-12-07T15:16:02;10.25;;;8.60;;
50789;SDS011;37287;47.554;7.844;2022-12-07T15:18:29;10.50;;;8.55;;
50789;SDS011;37287;47.554;7.844;2022-12-07T15:20:55;13.55;;;8.93;;
50789;SDS011;37287;47.554;7.844;2022-12-07T15:23:24;9.30;;;8.15;;
50789;SDS011;37287;47.554;7.844;2022-12-07T15:25:55;11.48;;;9.18;;
50789;SDS011;37287;47.554;7.844;2022-12-07T15:28:22;11.85;;;9.45;;
50789;SDS011;37287;47.554;7.844;2022-12-07T15:30:48;16.55;;;10.38;;
50789;SDS011;37287;47.554;7.844;2022-12-07T15:33:17;12.65;;;9.75;;
50789;SDS011;37287;47.554;7.844;2022-12-07T15:35:44;13.30;;;10.45;;
50789;SDS011;37287;47.554;7.844;2022-12-07T15:38:17;21.35;;;13.38;;
50789;SDS011;37287;47.554;7.844;2022-12-07T15:41:04;17.83;;;13.05;;
50789;SDS011;37287;47.554;7.844;2022-12-07T15:43:31;15.63;;;12.27;;
50789;SDS011;37287;47.554;7.844;2022-12-07T15:46:16;14.70;;;10.80;;
50789;SDS011;37287;47.554;7.844;2022-12-07T15:48:45;15.20;;;10.90;;
50789;SDS011;37287;47.554;7.844;2022-12-07T15:51:11;12.80;;;10.00;;
50789;SDS011;37287;47.554;7.844;2022-12-07T15:53:44;12.55;;;10.00;;
50789;SDS011;37287;47.554;7.844;2022-12-07T15:56:11;12.10;;;9.75;;
50789;SDS011;37287;47.554;7.844;2022-12-07T15:58:38;14.05;;;10.68;;
50789;SDS011;37287;47.554;7.844;2022-12-07T16:01:09;11.20;;;8.55;;
50789;SDS011;37287;47.554;7.844;2022-12-07T16:03:37;12.27;;;9.32;;
50789;SDS011;37287;47.554;7.844;2022-12-07T16:06:04;14.43;;;10.70;;
50789;SDS011;37287;47.554;7.844;2022-12-07T16:08:31;11.07;;;8.60;;
50789;SDS011;37287;47.554;7.844;2022-12-07T16:11:07;9.57;;;7.65;;
50789;SDS011;37287;47.554;7.844;2022-12-07T16:13:34;11.43;;;7.85;;
50789;SDS011;37287;47.554;7.844;2022-12-07T16:16:03;10.05;;;7.80;;
50789;SDS011;37287;47.554;7.844;2022-12-07T16:18:31;13.75;;;9.95;;
50789;SDS011;37287;47.554;7.844;2022-12-07T16:20:58;10.43;;;8.07;;
50789;SDS011;37287;47.554;7.844;2022-12-07T16:23:24;12.60;;;8.13;;
50789;SDS011;37287;47.554;7.844;2022-12-07T16:25:51;12.23;;;9.25;;
50789;SDS011;37287;47.554;7.844;2022-12-07T16:28:22;11.98;;;8.95;;
50789;SDS011;37287;47.554;7.844;2022-12-07T16:30:49;11.32;;;8.93;;
50789;SDS011;37287;47.554;7.844;2022-12-07T16:33:30;10.77;;;7.95;;
50789;SDS011;37287;47.554;7.844;2022-12-07T16:35:57;12.77;;;9.27;;
50789;SDS011;37287;47.554;7.844;2022-12-07T16:38:24;13.43;;;9.30;;
50789;SDS011;37287;47.554;7.844;2022-12-07T16:40:53;13.13;;;9.13;;
50789;SDS011;37287;47.554;7.844;2022-12-07T16:43:20;12.95;;;9.75;;
50789;SDS011;37287;47.554;7.844;2022-12-07T16:45:47;12.70;;;9.85;;
50789;SDS011;37287;47.554;7.844;2022-12-07T16:48:16;13.07;;;9.10;;
50789;SDS011;37287;47.554;7.844;2022-12-07T16:50:44;18.60;;;9.98;;
50789;SDS011;37287;47.554;7.844;2022-12-07T16:53:16;10.40;;;7.95;;
50789;SDS011;37287;47.554;7.844;2022-12-07T16:55:47;9.00;;;7.20;;
50789;SDS011;37287;47.554;7.844;2022-12-07T16:58:14;11.98;;;7.25;;
50789;SDS011;37287;47.554;7.844;2022-12-07T17:00:42;13.50;;;8.85;;
50789;SDS011;37287;47.554;7.844;2022-12-07T17:03:11;12.13;;;8.57;;
50789;SDS011;37287;47.554;7.844;2022-12-07T17:05:46;9.02;;;6.78;;
50789;SDS011;37287;47.554;7.844;2022-12-07T17:08:14;8.60;;;6.72;;
50789;SDS011;37287;47.554;7.844;2022-12-07T17:10:42;8.05;;;6.15;;
50789;SDS011;37287;47.554;7.844;2022-12-07T17:13:10;12.40;;;6.43;;
50789;SDS011;37287;47.554;7.844;2022-12-07T17:15:59;8.73;;;6.38;;